createdAt,value
2017-06-11T00:00:17.605Z,57.80
2017-06-11T00:02:45.877Z,57.90
2017-06-11T00:05:14.134Z,58.20
2017-06-11T00:07:42.379Z,58.50
2017-06-11T00:10:11.395Z,58.80
2017-06-11T00:12:39.667Z,58.80
2017-06-11T00:15:07.975Z,58.60
2017-06-11T00:17:36.225Z,58.60
2017-06-11T00:20:04.466Z,58.50
2017-06-11T00:22:33.477Z,57.90
2017-06-11T00:25:02.607Z,57.80
2017-06-11T00:27:30.851Z,57.80
2017-06-11T00:29:59.162Z,57.80
2017-06-11T00:32:27.415Z,57.30
2017-06-11T00:34:55.710Z,57.20
2017-06-11T00:37:23.943Z,57.40
2017-06-11T00:39:52.961Z,57.50
2017-06-11T00:42:21.199Z,57.40
2017-06-11T00:44:49.573Z,57.50
2017-06-11T00:47:17.782Z,57.40
2017-06-11T00:49:46.020Z,57.50
2017-06-11T00:52:14.269Z,57.60
2017-06-11T00:54:42.523Z,57.50
2017-06-11T00:57:10.770Z,57.60
2017-06-11T00:59:39.765Z,57.50
2017-06-11T01:02:08.077Z,57.50
2017-06-11T01:04:36.344Z,57.50
2017-06-11T01:07:04.624Z,57.60
2017-06-11T01:09:32.875Z,57.80
2017-06-11T01:12:01.149Z,57.70
2017-06-11T01:14:29.377Z,57.80
2017-06-11T01:16:57.636Z,57.90
2017-06-11T01:19:25.890Z,57.90
2017-06-11T01:21:54.131Z,58.00
2017-06-11T01:24:23.152Z,58.50
2017-06-11T01:26:51.392Z,58.30
2017-06-11T01:29:19.725Z,58.40
2017-06-11T01:31:47.958Z,58.40
2017-06-11T01:34:16.342Z,58.40
2017-06-11T01:36:44.645Z,58.50
2017-06-11T01:39:12.888Z,58.40
2017-06-11T01:41:41.993Z,58.50
2017-06-11T01:44:10.295Z,58.50
2017-06-11T01:46:38.618Z,58.70
2017-06-11T01:49:06.829Z,58.60
2017-06-11T01:51:35.086Z,58.60
2017-06-11T01:54:03.339Z,58.50
2017-06-11T01:56:31.675Z,58.40
2017-06-11T01:58:59.941Z,58.50
2017-06-11T02:01:28.202Z,58.70
2017-06-11T02:03:56.462Z,58.80
2017-06-11T02:06:25.466Z,58.90
2017-06-11T02:08:53.789Z,58.90
2017-06-11T02:11:22.105Z,59.20
2017-06-11T02:13:51.289Z,59.40
2017-06-11T02:16:19.613Z,59.40
2017-06-11T02:18:47.877Z,59.10
2017-06-11T02:21:16.269Z,59.00
2017-06-11T02:23:44.563Z,59.00
2017-06-11T02:26:12.926Z,58.90
2017-06-11T02:28:41.267Z,58.90
2017-06-11T02:31:10.409Z,58.90
2017-06-11T02:33:39.454Z,58.90
2017-06-11T02:36:08.485Z,58.90
2017-06-11T02:38:36.723Z,58.90
2017-06-11T02:41:05.745Z,60.00
2017-06-11T02:43:34.070Z,59.60
2017-06-11T02:46:02.335Z,59.70
2017-06-11T02:48:30.575Z,60.00
2017-06-11T02:50:58.848Z,60.10
2017-06-11T02:53:27.137Z,60.10
2017-06-11T02:55:55.469Z,60.20
2017-06-11T02:58:24.495Z,59.80
2017-06-11T03:00:52.728Z,59.80
2017-06-11T03:03:21.780Z,60.10
2017-06-11T03:05:50.083Z,60.10
2017-06-11T03:08:18.346Z,60.10
2017-06-11T03:10:46.662Z,60.10
2017-06-11T03:13:15.706Z,60.00
2017-06-11T03:15:43.939Z,60.00
2017-06-11T03:18:12.174Z,59.90
2017-06-11T03:20:40.446Z,59.80
2017-06-11T03:23:08.694Z,59.90
2017-06-11T03:25:37.009Z,59.90
2017-06-11T03:28:05.245Z,60.00
2017-06-11T03:30:33.579Z,60.30
2017-06-11T03:33:02.579Z,61.30
2017-06-11T03:35:31.593Z,61.90
2017-06-11T03:37:59.897Z,61.80
2017-06-11T03:40:28.260Z,61.80
2017-06-11T03:42:56.497Z,62.00
2017-06-11T03:45:25.595Z,62.10
2017-06-11T03:47:54.616Z,62.30
2017-06-11T03:50:22.856Z,62.20
2017-06-11T03:52:51.937Z,62.10
2017-06-11T03:55:20.173Z,62.10
2017-06-11T03:57:48.426Z,62.20
2017-06-11T04:00:16.661Z,62.50
2017-06-11T04:02:45.297Z,62.80
2017-06-11T04:05:13.571Z,62.70
2017-06-11T04:07:42.558Z,62.90
2017-06-11T04:10:10.875Z,62.80
2017-06-11T04:12:39.122Z,62.60
2017-06-11T04:15:07.369Z,62.60
2017-06-11T04:17:35.815Z,62.50
2017-06-11T04:20:04.857Z,62.30
2017-06-11T04:22:33.189Z,62.20
2017-06-11T04:25:01.558Z,62.20
2017-06-11T04:27:29.893Z,62.10
2017-06-11T04:29:58.148Z,62.10
2017-06-11T04:32:26.392Z,62.00
2017-06-11T04:34:54.785Z,61.90
2017-06-11T04:37:23.033Z,61.60
2017-06-11T04:39:51.265Z,61.40
2017-06-11T04:42:19.529Z,60.80
2017-06-11T04:44:47.762Z,60.80
2017-06-11T04:47:16.010Z,60.30
2017-06-11T04:49:44.255Z,60.00
2017-06-11T04:52:12.505Z,59.60
2017-06-11T04:54:41.524Z,60.00
2017-06-11T04:57:09.777Z,59.30
2017-06-11T04:59:38.010Z,59.20
2017-06-11T05:02:06.276Z,58.80
2017-06-11T05:04:34.520Z,58.30
2017-06-11T05:07:02.794Z,57.70
2017-06-11T05:09:31.062Z,56.80
2017-06-11T05:12:00.096Z,54.40
2017-06-11T05:14:28.514Z,54.40
2017-06-11T05:16:56.899Z,53.40
2017-06-11T05:19:25.129Z,53.00
2017-06-11T05:21:53.364Z,52.20
2017-06-11T05:24:21.620Z,51.60
2017-06-11T05:26:49.853Z,51.50
2017-06-11T05:29:18.133Z,50.90
2017-06-11T05:31:46.376Z,50.90
2017-06-11T05:34:14.615Z,50.30
2017-06-11T05:36:42.894Z,50.40
2017-06-11T05:39:12.005Z,50.60
2017-06-11T05:41:41.149Z,49.80
2017-06-11T05:44:09.387Z,49.70
2017-06-11T05:46:37.634Z,49.40
2017-06-11T05:49:06.677Z,49.20
2017-06-11T05:51:34.941Z,49.30
2017-06-11T05:54:03.176Z,48.70
2017-06-11T05:56:31.453Z,48.60
2017-06-11T05:59:00.458Z,48.40
2017-06-11T06:01:29.537Z,47.60
2017-06-11T06:03:57.814Z,47.50
2017-06-11T06:06:27.650Z,45.90
2017-06-11T06:08:55.924Z,45.90
2017-06-11T06:11:24.338Z,44.80
2017-06-11T06:13:52.599Z,43.40
2017-06-11T06:16:20.857Z,43.00
2017-06-11T06:18:49.187Z,41.00
2017-06-11T06:21:17.423Z,39.80
2017-06-11T06:23:45.728Z,39.10
2017-06-11T06:26:13.981Z,37.30
2017-06-11T06:28:42.210Z,36.70
2017-06-11T06:31:11.258Z,34.70
2017-06-11T06:33:39.583Z,34.70
2017-06-11T06:36:07.833Z,33.50
2017-06-11T06:38:36.064Z,33.90
2017-06-11T06:41:04.334Z,32.50
2017-06-11T06:43:32.572Z,31.60
2017-06-11T06:46:00.923Z,31.70
2017-06-11T06:48:29.184Z,31.70
2017-06-11T06:50:57.510Z,32.90
2017-06-11T06:53:26.535Z,35.60
2017-06-11T06:55:54.873Z,35.50
2017-06-11T06:58:23.097Z,37.10
2017-06-11T07:00:51.401Z,37.60
2017-06-11T07:03:19.906Z,38.90
2017-06-11T07:05:48.127Z,39.20
2017-06-11T07:08:16.383Z,40.40
2017-06-11T07:10:44.633Z,41.00
2017-06-11T07:13:13.651Z,41.30
2017-06-11T07:15:42.673Z,41.90
2017-06-11T07:18:10.933Z,41.90
2017-06-11T07:20:39.182Z,41.60
2017-06-11T07:23:08.227Z,41.10
2017-06-11T07:25:36.517Z,41.10
2017-06-11T07:28:04.763Z,42.10
2017-06-11T07:30:33.027Z,41.30
2017-06-11T07:33:01.342Z,39.90
2017-06-11T07:35:29.596Z,39.90
2017-06-11T07:37:57.850Z,37.60
2017-06-11T07:40:26.149Z,37.50
2017-06-11T07:42:54.428Z,37.30
2017-06-11T07:45:22.696Z,36.20
2017-06-11T07:47:50.989Z,36.00
2017-06-11T07:50:19.232Z,33.80
2017-06-11T07:52:47.538Z,33.20
2017-06-11T07:55:15.801Z,33.50
2017-06-11T07:57:44.082Z,33.00
2017-06-11T08:00:12.397Z,32.30
2017-06-11T08:02:40.637Z,31.90
2017-06-11T08:05:08.889Z,32.00
2017-06-11T08:07:37.134Z,32.70
2017-06-11T08:10:06.176Z,33.10
2017-06-11T08:12:34.517Z,32.90
2017-06-11T08:15:03.547Z,29.80
2017-06-11T08:17:31.785Z,29.80
2017-06-11T08:20:00.914Z,30.00
2017-06-11T08:22:29.347Z,30.00
2017-06-11T08:24:58.357Z,30.60
2017-06-11T08:27:26.705Z,30.60
2017-06-11T08:29:54.938Z,30.30
2017-06-11T08:32:23.218Z,30.20
2017-06-11T08:34:51.546Z,29.80
2017-06-11T08:37:20.642Z,30.40
2017-06-11T08:39:48.920Z,30.30
2017-06-11T08:42:17.171Z,30.10
2017-06-11T08:44:45.451Z,31.10
2017-06-11T08:47:13.738Z,30.70
2017-06-11T08:49:42.069Z,30.40
2017-06-11T08:52:10.303Z,30.50
2017-06-11T08:54:39.433Z,29.20
2017-06-11T08:57:07.718Z,29.20
2017-06-11T08:59:35.970Z,29.20
2017-06-11T09:02:04.314Z,28.50
2017-06-11T09:04:32.684Z,28.80
2017-06-11T09:07:00.897Z,29.60
2017-06-11T09:09:29.603Z,28.10
2017-06-11T09:11:57.861Z,28.00
2017-06-11T09:14:26.127Z,28.30
2017-06-11T09:16:54.490Z,27.50
2017-06-11T09:19:23.494Z,28.90
2017-06-11T09:21:51.761Z,28.90
2017-06-11T09:24:20.765Z,27.60
2017-06-11T09:26:49.273Z,27.70
2017-06-11T09:29:17.553Z,24.90
2017-06-11T09:31:45.813Z,25.00
2017-06-11T09:34:14.066Z,25.80
2017-06-11T09:36:42.370Z,25.50
2017-06-11T09:39:10.633Z,25.10
2017-06-11T09:41:38.899Z,25.40
2017-06-11T09:44:07.178Z,25.20
2017-06-11T09:46:35.509Z,24.50
2017-06-11T09:49:03.762Z,24.10
2017-06-11T09:51:32.011Z,24.80
2017-06-11T09:54:00.265Z,24.30
2017-06-11T09:56:29.278Z,23.70
2017-06-11T09:58:57.589Z,23.60
2017-06-11T10:01:25.867Z,24.10
2017-06-11T10:03:54.200Z,23.90
2017-06-11T10:06:22.507Z,23.00
2017-06-11T10:08:50.891Z,22.40
2017-06-11T10:11:19.130Z,22.30
2017-06-11T10:13:47.481Z,22.30
2017-06-11T10:16:15.730Z,22.30
2017-06-11T10:18:43.975Z,22.00
2017-06-11T10:21:13.050Z,20.80
2017-06-11T10:23:41.301Z,20.70
2017-06-11T10:26:09.606Z,19.80
2017-06-11T10:28:37.882Z,20.10
2017-06-11T10:31:06.159Z,19.10
2017-06-11T10:33:34.415Z,19.20
2017-06-11T10:36:03.449Z,17.00
2017-06-11T10:38:31.724Z,17.00
2017-06-11T10:41:00.069Z,17.40
2017-06-11T10:43:29.073Z,17.60
2017-06-11T10:45:57.409Z,17.60
2017-06-11T10:48:25.668Z,18.10
2017-06-11T10:50:54.020Z,18.30
2017-06-11T10:53:22.274Z,16.90
2017-06-11T10:55:50.595Z,16.70
2017-06-11T10:58:18.859Z,16.90
2017-06-11T11:00:47.205Z,16.00
2017-06-11T11:03:15.478Z,16.10
2017-06-11T11:05:44.357Z,15.80
2017-06-11T11:08:13.370Z,15.20
2017-06-11T11:10:41.628Z,15.20
2017-06-11T11:13:09.981Z,15.30
2017-06-11T11:15:39.031Z,14.50
2017-06-11T11:18:07.295Z,14.70
2017-06-11T11:20:35.566Z,14.20
2017-06-11T11:23:03.969Z,14.20
2017-06-11T11:25:32.328Z,14.20
2017-06-11T11:28:00.605Z,14.20
2017-06-11T11:30:28.884Z,14.30
2017-06-11T11:32:57.129Z,14.40
2017-06-11T11:35:26.618Z,14.70
2017-06-11T11:37:54.939Z,14.70
2017-06-11T11:40:23.726Z,15.20
2017-06-11T11:42:52.004Z,15.20
2017-06-11T11:45:20.237Z,16.00
2017-06-11T11:47:49.254Z,16.80
2017-06-11T11:50:17.694Z,16.70
2017-06-11T11:52:45.922Z,17.40
2017-06-11T11:55:14.161Z,17.30
2017-06-11T11:57:43.192Z,19.20
2017-06-11T12:00:11.435Z,19.20
2017-06-11T12:02:40.543Z,20.70
2017-06-11T12:05:08.797Z,20.70
2017-06-11T12:07:37.885Z,23.30
2017-06-11T12:10:06.902Z,23.70
2017-06-11T12:12:35.149Z,23.70
2017-06-11T12:15:03.393Z,24.10
2017-06-11T12:17:31.745Z,25.40
2017-06-11T12:20:00.092Z,26.20
2017-06-11T12:22:29.168Z,26.50
2017-06-11T12:24:57.440Z,26.50
2017-06-11T12:27:25.681Z,27.20
2017-06-11T12:29:53.951Z,28.40
2017-06-11T12:32:22.222Z,27.70
2017-06-11T12:34:50.504Z,28.00
2017-06-11T12:37:18.764Z,28.30
2017-06-11T12:39:47.029Z,28.20
2017-06-11T12:42:16.166Z,27.80
2017-06-11T12:44:44.451Z,27.80
2017-06-11T12:47:12.689Z,28.00
2017-06-11T12:49:40.966Z,29.10
2017-06-11T12:52:10.092Z,28.80
2017-06-11T12:54:38.354Z,28.20
2017-06-11T12:57:06.669Z,28.20
2017-06-11T12:59:34.922Z,27.90
2017-06-11T13:02:03.150Z,27.80
2017-06-11T13:04:31.446Z,26.30
2017-06-11T13:06:59.685Z,25.40
2017-06-11T13:09:28.026Z,24.70
2017-06-11T13:11:56.331Z,24.60
2017-06-11T13:14:24.612Z,24.40
2017-06-11T13:16:53.653Z,26.00
2017-06-11T13:19:22.117Z,26.10
2017-06-11T13:21:50.362Z,26.40
2017-06-11T13:24:19.538Z,27.50
2017-06-11T13:26:47.829Z,27.50
2017-06-11T13:29:16.190Z,28.30
2017-06-11T13:31:44.422Z,28.20
2017-06-11T13:34:12.660Z,28.50
2017-06-11T13:36:42.247Z,28.20
2017-06-11T13:39:11.542Z,28.20
2017-06-11T13:41:41.153Z,29.70
2017-06-11T13:44:09.870Z,29.70
2017-06-11T13:46:39.039Z,29.00
2017-06-11T13:49:08.537Z,28.80
2017-06-11T13:51:37.839Z,30.00
2017-06-11T13:54:07.839Z,29.60
2017-06-11T13:56:37.295Z,30.00
2017-06-11T13:59:06.766Z,30.00
2017-06-11T14:01:36.120Z,30.00
2017-06-11T14:04:04.422Z,30.00
2017-06-11T14:06:32.721Z,30.00
2017-06-11T14:09:01.052Z,30.50
2017-06-11T14:11:29.279Z,29.20
2017-06-11T14:13:58.361Z,29.20
2017-06-11T14:16:26.652Z,28.90
2017-06-11T14:18:54.876Z,30.00
2017-06-11T14:21:23.141Z,29.90
2017-06-11T14:24:01.094Z,29.80
2017-06-11T14:26:29.342Z,29.50
2017-06-11T14:28:57.582Z,29.90
2017-06-11T14:31:25.974Z,29.20
2017-06-11T14:33:54.309Z,29.50
2017-06-11T14:36:23.317Z,29.70
2017-06-11T14:38:51.591Z,29.60
2017-06-11T14:41:19.844Z,30.10
2017-06-11T14:43:48.165Z,30.30
2017-06-11T14:46:16.433Z,30.20
2017-06-11T14:48:44.679Z,30.10
2017-06-11T14:51:13.693Z,30.40
2017-06-11T14:53:42.016Z,30.30
2017-06-11T14:56:10.286Z,29.70
2017-06-11T14:58:38.605Z,30.50
2017-06-11T15:01:07.641Z,31.00
2017-06-11T15:03:36.029Z,31.10
2017-06-11T15:06:04.302Z,30.40
2017-06-11T15:08:32.558Z,30.20
2017-06-11T15:11:00.840Z,29.70
2017-06-11T15:13:29.178Z,28.90
2017-06-11T15:15:58.209Z,28.60
2017-06-11T15:18:26.454Z,28.60
2017-06-11T15:20:55.593Z,29.30
2017-06-11T15:23:23.861Z,29.30
2017-06-11T15:25:52.096Z,30.10
2017-06-11T15:28:21.130Z,29.20
2017-06-11T15:30:49.400Z,29.10
2017-06-11T15:33:17.636Z,29.20
2017-06-11T15:35:46.774Z,29.00
2017-06-11T15:38:15.025Z,28.90
2017-06-11T15:40:43.258Z,29.50
2017-06-11T15:43:11.511Z,29.90
2017-06-11T15:45:39.772Z,29.60
2017-06-11T15:48:08.010Z,29.70
2017-06-11T15:50:37.045Z,29.00
2017-06-11T15:53:05.311Z,29.00
2017-06-11T15:55:33.633Z,29.20
2017-06-11T15:58:01.858Z,29.40
2017-06-11T16:00:30.126Z,29.20
2017-06-11T16:02:58.377Z,30.00
2017-06-11T16:05:27.416Z,29.80
2017-06-11T16:07:55.733Z,29.80
2017-06-11T16:10:24.076Z,30.00
2017-06-11T16:12:52.323Z,30.30
2017-06-11T16:15:20.656Z,30.40
2017-06-11T16:17:48.931Z,30.80
2017-06-11T16:20:17.224Z,30.30
2017-06-11T16:22:45.502Z,30.80
2017-06-11T16:25:14.510Z,31.60
2017-06-11T16:27:42.819Z,31.60
2017-06-11T16:30:11.085Z,31.60
2017-06-11T16:32:39.323Z,32.20
2017-06-11T16:35:07.646Z,30.80
2017-06-11T16:37:35.928Z,30.90
2017-06-11T16:40:04.421Z,31.10
2017-06-11T16:42:32.667Z,31.30
2017-06-11T16:45:00.934Z,31.90
2017-06-11T16:47:29.174Z,32.40
2017-06-11T16:49:58.697Z,32.90
2017-06-11T16:52:28.977Z,33.00
2017-06-11T16:54:58.128Z,32.90
2017-06-11T16:57:27.742Z,32.20
2017-06-11T16:59:56.873Z,32.30
2017-06-11T17:02:26.014Z,32.40
2017-06-11T17:04:55.186Z,32.10
2017-06-11T17:07:24.684Z,32.10
2017-06-11T17:09:53.572Z,32.40
2017-06-11T17:12:23.589Z,32.30
2017-06-11T17:14:53.695Z,32.50
2017-06-11T17:17:23.352Z,32.40
2017-06-11T17:19:51.849Z,33.20
2017-06-11T17:22:20.190Z,32.40
2017-06-11T17:24:49.269Z,32.50
2017-06-11T17:27:17.608Z,32.50
2017-06-11T17:29:45.883Z,32.50
2017-06-11T17:32:14.115Z,33.00
2017-06-11T17:34:43.320Z,33.50
2017-06-11T17:37:12.077Z,33.40
2017-06-11T17:39:40.968Z,33.80
2017-06-11T17:42:09.860Z,34.20
2017-06-11T17:44:39.451Z,34.80
2017-06-11T17:47:08.096Z,34.80
2017-06-11T17:49:36.471Z,35.10
2017-06-11T17:52:04.764Z,35.30
2017-06-11T17:54:33.002Z,35.60
2017-06-11T17:57:01.330Z,35.90
2017-06-11T17:59:29.607Z,35.80
2017-06-11T18:01:57.865Z,36.10
2017-06-11T18:04:26.115Z,36.30
2017-06-11T18:06:54.384Z,36.30
2017-06-11T18:09:23.433Z,36.80
2017-06-11T18:11:51.674Z,36.80
2017-06-11T18:14:19.938Z,37.00
2017-06-11T18:16:48.477Z,37.20
2017-06-11T18:19:16.813Z,37.20
2017-06-11T18:21:45.194Z,37.30
2017-06-11T18:24:13.440Z,37.20
2017-06-11T18:26:41.745Z,37.20
2017-06-11T18:29:10.616Z,37.60
2017-06-11T18:31:39.597Z,37.50
2017-06-11T18:34:07.845Z,37.50
2017-06-11T18:36:37.061Z,38.40
2017-06-11T18:39:05.278Z,37.70
2017-06-11T18:41:33.650Z,37.90
2017-06-11T18:44:01.930Z,38.10
2017-06-11T18:46:30.179Z,38.20
2017-06-11T18:48:58.429Z,38.30
2017-06-11T18:51:26.714Z,38.60
2017-06-11T18:53:55.712Z,38.70
2017-06-11T18:56:24.726Z,38.80
2017-06-11T18:58:52.989Z,38.80
2017-06-11T19:01:21.305Z,39.00
2017-06-11T19:03:49.713Z,39.50
2017-06-11T19:06:18.044Z,39.70
2017-06-11T19:08:46.290Z,39.80
2017-06-11T19:11:14.536Z,39.50
2017-06-11T19:13:42.813Z,39.80
2017-06-11T19:16:11.069Z,40.00
2017-06-11T19:18:39.322Z,40.10
2017-06-11T19:21:07.595Z,40.20
2017-06-11T19:23:35.826Z,40.30
2017-06-11T19:26:04.836Z,41.10
2017-06-11T19:28:33.142Z,41.10
2017-06-11T19:31:01.428Z,41.10
2017-06-11T19:33:29.711Z,42.00
2017-06-11T19:35:58.033Z,40.80
2017-06-11T19:38:26.284Z,40.70
2017-06-11T19:40:54.540Z,40.60
2017-06-11T19:43:22.827Z,41.30
2017-06-11T19:45:51.170Z,41.20
2017-06-11T19:48:19.463Z,41.10
2017-06-11T19:50:47.822Z,41.40
2017-06-11T19:53:16.049Z,41.40
2017-06-11T19:55:45.243Z,41.80
2017-06-11T19:58:13.584Z,41.70
2017-06-11T20:00:41.814Z,41.80
2017-06-11T20:03:10.166Z,42.00
2017-06-11T20:05:38.543Z,42.30
2017-06-11T20:08:06.754Z,42.70
2017-06-11T20:10:34.993Z,42.80
2017-06-11T20:13:03.376Z,43.20
2017-06-11T20:15:31.582Z,43.50
2017-06-11T20:17:59.920Z,43.80
2017-06-11T20:20:28.265Z,43.70
2017-06-11T20:22:56.581Z,43.60
2017-06-11T20:25:24.829Z,43.80
2017-06-11T20:27:53.088Z,44.30
2017-06-11T20:30:21.335Z,44.60
2017-06-11T20:32:49.570Z,45.00
2017-06-11T20:35:17.934Z,45.30
2017-06-11T20:37:46.220Z,45.30
2017-06-11T20:40:14.470Z,45.20
2017-06-11T20:42:42.829Z,45.70
2017-06-11T20:45:11.221Z,45.60
2017-06-11T20:47:39.537Z,45.70
2017-06-11T20:50:07.790Z,45.80
2017-06-11T20:52:36.021Z,45.60
2017-06-11T20:55:04.289Z,45.60
2017-06-11T20:57:32.595Z,46.10
2017-06-11T21:00:00.836Z,45.70
2017-06-11T21:02:29.186Z,46.00
2017-06-11T21:04:57.524Z,46.50
2017-06-11T21:07:25.829Z,46.80
2017-06-11T21:09:54.061Z,46.80
2017-06-11T21:12:22.357Z,46.70
2017-06-11T21:14:50.591Z,46.80
2017-06-11T21:17:18.878Z,47.50
2017-06-11T21:19:47.225Z,47.50
2017-06-11T21:22:15.478Z,47.60
2017-06-11T21:24:43.720Z,47.80
2017-06-11T21:27:11.993Z,48.00
2017-06-11T21:29:40.269Z,48.20
2017-06-11T21:32:08.504Z,48.40
2017-06-11T21:34:37.655Z,47.80
2017-06-11T21:37:05.935Z,47.80
2017-06-11T21:39:34.179Z,47.80
2017-06-11T21:42:02.488Z,48.20
2017-06-11T21:44:30.724Z,48.10
2017-06-11T21:46:59.138Z,48.10
2017-06-11T21:49:27.414Z,48.50
2017-06-11T21:51:55.820Z,48.20
2017-06-11T21:54:24.158Z,48.50
2017-06-11T21:56:52.430Z,48.40
2017-06-11T21:59:20.746Z,48.50
2017-06-11T22:01:48.986Z,48.90
2017-06-11T22:04:17.257Z,48.60
2017-06-11T22:06:45.785Z,48.20
2017-06-11T22:09:14.118Z,48.00
2017-06-11T22:11:42.440Z,48.60
2017-06-11T22:14:10.775Z,48.50
2017-06-11T22:16:39.017Z,49.00
2017-06-11T22:19:07.321Z,48.80
2017-06-11T22:21:35.593Z,48.80
2017-06-11T22:24:03.918Z,48.60
2017-06-11T22:26:32.205Z,48.70
2017-06-11T22:29:01.249Z,48.20
2017-06-11T22:31:29.530Z,48.10
2017-06-11T22:33:57.810Z,48.30
2017-06-11T22:36:26.121Z,48.40
2017-06-11T22:38:55.221Z,48.30
2017-06-11T22:41:24.361Z,47.90
2017-06-11T22:43:52.606Z,48.30
2017-06-11T22:46:20.838Z,48.10
2017-06-11T22:48:49.242Z,48.30
2017-06-11T22:51:18.157Z,48.20
2017-06-11T22:53:46.476Z,48.40
2017-06-11T22:56:14.747Z,48.00
2017-06-11T22:58:43.013Z,48.00
2017-06-11T23:01:11.249Z,47.30
2017-06-11T23:03:39.606Z,47.50
2017-06-11T23:06:07.934Z,47.80
2017-06-11T23:08:36.237Z,47.80
2017-06-11T23:11:04.585Z,47.60
2017-06-11T23:13:32.830Z,47.70
2017-06-11T23:16:01.829Z,47.30
2017-06-11T23:18:30.105Z,47.20
2017-06-11T23:20:58.437Z,47.20
2017-06-11T23:23:26.863Z,47.20
2017-06-11T23:25:55.999Z,47.30
2017-06-11T23:28:24.867Z,47.30
2017-06-11T23:30:53.107Z,47.00
2017-06-11T23:33:22.244Z,46.60
2017-06-11T23:35:50.546Z,46.60
2017-06-11T23:38:18.794Z,46.90
2017-06-11T23:40:47.150Z,46.90
2017-06-11T23:43:15.441Z,46.90
2017-06-11T23:45:43.754Z,47.30
2017-06-11T23:48:12.098Z,47.20
2017-06-11T23:50:40.350Z,47.30
2017-06-11T23:53:09.393Z,47.70
2017-06-11T23:55:37.742Z,47.70
2017-06-11T23:58:06.028Z,47.60
